LTBG

Bandırma Airport

Turkey
TAF LTBG 171340Z 1715/1724 06012KT 9999 FEW035 BECMG 1715/1718 CAVOK
Issued Valid From Valid To
Aug-17 @ 13:40 UTC
(an hour ago)
Aug-17 @ 15:00 UTC
(in 3 minutes)
Aug-18 @ 00:00 UTC
(in 9 hours)
Aug-17 @ 15:00 to Aug-18 @ 00:00
TAF LTBG 171340Z 1715/1724 06012KT 9999 FEW035
Wind Visibility Clouds
60° at 12 knots 10,000+ meters
  • Few at 3,500' AGL
Becoming Aug-17 @ 15:00 to Aug-18 @ 00:00
BECMG 1715/1718 CAVOK
Wind Visibility Clouds Conditions
60° at 12 knots 10,000+ meters
  • No significant clouds
TAF LTBG 171340Z 1715/1724 06012KT 9999 FEW035 BECMG 1715/1718 CAVOK
Issued Aug-17 @ 13:40 UTC
(an hour ago)
Valid From Aug-17 @ 15:00 UTC
(in 3 minutes)
Valid To Aug-18 @ 00:00 UTC
(in 9 hours)
Aug-17 @ 15:00 - Aug-18 @ 00:00
Wind Visibility
60° at 12 knots 10,000+ meters
Clouds
  • Few at 3,500' AGL
Becoming Aug-17 @ 15:00 - Aug-18 @ 00:00
Wind Visibility
60° at 12 knots 10,000+ meters
Clouds
  • No significant clouds
Conditions